Time;durP1;ratioP1;P1;durP2;ratioP2;P2;SDS_P1;SDS_P2;PMS_P1;PMS_P2;Temp;Humidity;BMP_temperature;BMP_pressure;BME280_temperature;BME280_humidity;BME280_pressure;Samples;Min_cycle;Max_cycle;Signal;HPM_P1;HPM_P2
2022/05/10 00:00:38;;;;;;;5.70;3.10;;;;;;;12.83;53.92;101788.25;5108589;27;20092;-68
2022/05/10 00:03:07;;;;;;;8.93;3.50;;;;;;;12.81;53.72;101790.13;5109737;27;20047;-67
2022/05/10 00:05:37;;;;;;;8.75;3.30;;;;;;;12.80;53.85;101777.88;5108134;27;20107;-69
2022/05/10 00:08:06;;;;;;;8.40;3.53;;;;;;;12.74;53.93;101777.28;5109803;27;20116;-68
2022/05/10 00:10:33;;;;;;;8.82;3.17;;;;;;;12.86;53.09;101777.59;5109689;27;20124;-68
2022/05/10 00:13:00;;;;;;;4.90;3.00;;;;;;;12.63;53.78;101778.63;5109114;27;20143;-67
2022/05/10 00:15:27;;;;;;;6.45;3.03;;;;;;;12.61;54.09;101783.09;5109332;28;20471;-68
2022/05/10 00:17:54;;;;;;;5.32;3.28;;;;;;;12.69;53.77;101783.59;5108702;28;20054;-68
2022/05/10 00:20:24;;;;;;;7.57;3.53;;;;;;;12.56;54.11;101781.59;5119343;27;20039;-67
2022/05/10 00:22:51;;;;;;;5.97;2.90;;;;;;;12.65;53.95;101776.78;5101188;27;20075;-67
2022/05/10 00:25:20;;;;;;;13.30;3.50;;;;;;;12.64;54.42;101779.44;5107590;28;20086;-68
2022/05/10 00:27:46;;;;;;;9.77;3.25;;;;;;;12.55;54.35;101775.47;5108577;27;20791;-68
2022/05/10 00:30:13;;;;;;;7.00;3.53;;;;;;;12.52;54.76;101769.47;5117812;27;20047;-68
2022/05/10 00:32:40;;;;;;;5.65;3.47;;;;;;;12.46;54.37;101767.97;5114405;27;20488;-68
2022/05/10 00:35:15;;;;;;;7.18;3.38;;;;;;;12.42;54.76;101774.28;5109202;27;20044;-68
2022/05/10 00:37:44;;;;;;;11.38;3.67;;;;;;;12.44;55.18;101764.56;5114917;27;20039;-68
2022/05/10 00:40:12;;;;;;;6.72;3.08;;;;;;;12.39;54.71;101770.91;5117379;27;20483;-68
2022/05/10 00:42:48;;;;;;;8.43;3.10;;;;;;;12.51;54.36;101770.41;5106987;27;20067;-67
2022/05/10 00:45:19;;;;;;;7.95;3.08;;;;;;;12.20;55.80;101766.44;5108877;27;20083;-67
2022/05/10 00:47:49;;;;;;;7.50;4.10;;;;;;;11.82;57.31;101758.44;5108610;27;20051;-67
2022/05/10 00:50:25;;;;;;;8.32;3.53;;;;;;;11.68;57.89;101761.56;5097068;27;20452;-69
2022/05/10 00:52:57;;;;;;;9.15;3.58;;;;;;;11.59;57.56;101757.56;5110433;27;20294;-68
2022/05/10 00:55:31;;;;;;;10.75;4.22;;;;;;;11.29;59.03;101761.38;5103849;28;20072;-68
2022/05/10 00:58:11;;;;;;;7.05;3.38;;;;;;;11.27;59.66;101752.69;5098023;27;20039;-68
2022/05/10 01:00:39;;;;;;;6.55;3.35;;;;;;;11.48;58.80;101751.00;5098715;27;20341;-68
2022/05/10 01:03:13;;;;;;;5.43;3.40;;;;;;;11.59;58.06;101747.06;5110384;27;20592;-68
2022/05/10 01:05:44;;;;;;;6.45;3.10;;;;;;;11.68;57.83;101751.91;5109937;27;20136;-68
2022/05/10 01:08:17;;;;;;;9.05;3.97;;;;;;;11.71;57.82;101746.56;5110671;27;20051;-68
2022/05/10 01:10:48;;;;;;;9.52;4.00;;;;;;;11.70;57.69;101744.84;5108400;27;20071;-67
2022/05/10 01:13:23;;;;;;;12.68;4.13;;;;;;;11.65;57.83;101736.28;5110377;27;20059;-67
2022/05/10 01:15:59;;;;;;;7.45;3.70;;;;;;;11.43;58.56;101732.81;5103904;27;20420;-67
2022/05/10 01:18:25;;;;;;;11.52;3.83;;;;;;;11.40;58.38;101727.69;5104815;28;20100;-67
2022/05/10 01:20:57;;;;;;;10.57;3.70;;;;;;;11.22;58.84;101717.91;5108960;27;20066;-67
2022/05/10 01:23:58;;;;;;;9.18;3.35;;;;;;;11.22;58.95;101737.13;5110239;27;20051;-67
2022/05/10 01:26:33;;;;;;;13.13;5.00;;;;;;;11.27;58.40;101720.34;5110244;27;20052;-67
2022/05/10 01:29:06;;;;;;;15.77;4.10;;;;;;;11.24;58.60;101719.53;5109882;28;20066;-67
2022/05/10 01:31:37;;;;;;;10.90;4.15;;;;;;;11.04;59.90;101723.84;5109828;27;20063;-68
2022/05/10 01:34:08;;;;;;;5.53;3.40;;;;;;;10.90;60.59;101713.84;5109289;27;20109;-68
2022/05/10 01:36:41;;;;;;;6.13;3.83;;;;;;;11.10;59.68;101715.72;5109784;27;20084;-68
2022/05/10 01:39:16;;;;;;;11.07;3.65;;;;;;;10.93;59.81;101712.91;5108909;28;20067;-68
2022/05/10 01:41:50;;;;;;;10.40;3.95;;;;;;;10.81;60.34;101705.50;5109581;27;20059;-68
2022/05/10 01:44:25;;;;;;;6.97;3.55;;;;;;;11.02;59.82;101708.16;5109971;27;20636;-68
2022/05/10 01:46:58;;;;;;;6.68;3.75;;;;;;;10.98;59.79;101710.94;5110039;28;20047;-68
2022/05/10 01:49:30;;;;;;;;;;;;;;;11.00;59.76;101709.13;5109965;28;20097;-68
2022/05/10 01:52:03;;;;;;;6.32;3.55;;;;;;;10.78;60.37;101701.22;5109325;27;19973;-68
2022/05/10 01:54:59;;;;;;;9.23;3.42;;;;;;;10.54;60.80;101702.09;5108815;27;20119;-68
2022/05/10 01:57:26;;;;;;;12.55;3.85;;;;;;;10.62;60.90;101708.78;5103072;28;20044;-68
2022/05/10 02:00:00;;;;;;;11.32;4.07;;;;;;;10.67;60.44;101706.88;5108530;28;20479;-68
2022/05/10 02:02:29;;;;;;;5.13;3.28;;;;;;;10.52;60.87;101696.94;5103500;27;20137;-68
2022/05/10 02:05:00;;;;;;;10.93;3.90;;;;;;;10.61;60.87;101696.56;5109200;27;20043;-68
2022/05/10 02:07:27;;;;;;;10.93;4.07;;;;;;;10.67;60.73;101699.00;5107260;28;20437;-68
2022/05/10 02:10:00;;;;;;;10.98;4.55;;;;;;;10.65;60.35;101698.19;5105868;28;20423;-69
2022/05/10 02:12:32;;;;;;;9.00;3.60;;;;;;;10.81;60.06;101692.38;5107811;27;20040;-69
2022/05/10 02:15:06;;;;;;;8.30;3.63;;;;;;;10.53;61.14;101697.78;5109031;27;20047;-69
2022/05/10 02:17:37;;;;;;;8.57;3.70;;;;;;;10.60;60.63;101689.66;5088897;28;20043;-69
2022/05/10 02:20:09;;;;;;;8.80;3.90;;;;;;;10.56;60.71;101688.03;5092938;27;20051;-69
2022/05/10 02:22:41;;;;;;;7.40;3.95;;;;;;;10.42;61.46;101686.84;5107328;27;20096;-69
2022/05/10 02:25:13;;;;;;;13.63;3.90;;;;;;;10.50;61.26;101687.38;5094367;27;20059;-69
2022/05/10 02:27:44;;;;;;;9.45;4.03;;;;;;;10.57;60.79;101691.50;5108286;27;20089;-69
2022/05/10 02:30:15;;;;;;;8.88;4.25;;;;;;;10.67;60.96;101688.50;5108116;27;20128;-69
2022/05/10 02:35:33;;;;;;;14.25;3.92;;;;;;;10.77;60.44;101690.78;5105689;27;20061;-69
2022/05/10 02:37:59;;;;;;;8.27;3.88;;;;;;;10.85;60.01;101688.72;5108544;28;20055;-69
2022/05/10 02:40:26;;;;;;;8.32;4.20;;;;;;;10.79;60.22;101673.22;5107463;27;20036;-69
2022/05/10 02:42:52;;;;;;;7.35;3.70;;;;;;;10.55;60.74;101674.97;5111690;27;20035;-69
2022/05/10 02:45:20;;;;;;;10.93;3.90;;;;;;;10.71;60.42;101674.38;5108907;28;20089;-69
2022/05/10 02:47:50;;;;;;;9.75;4.07;;;;;;;10.92;59.75;101675.31;5108155;28;20465;-69
2022/05/10 02:50:23;;;;;;;15.77;3.67;;;;;;;10.98;59.32;101671.59;5103675;28;20040;-69
2022/05/10 02:52:49;;;;;;;7.20;3.70;;;;;;;10.92;59.60;101663.97;5108050;27;20044;-69
2022/05/10 02:55:19;;;;;;;9.35;4.05;;;;;;;10.84;59.82;101666.00;5101847;27;20044;-69
2022/05/10 02:57:48;;;;;;;7.65;4.05;;;;;;;10.67;60.38;101664.03;5103686;28;20508;-69
2022/05/10 03:00:16;;;;;;;8.48;3.90;;;;;;;10.36;61.39;101663.44;5106947;28;20040;-69
2022/05/10 03:02:48;;;;;;;17.13;3.72;;;;;;;10.42;61.03;101658.81;5107761;27;20477;-69
2022/05/10 03:05:15;;;;;;;7.45;3.67;;;;;;;10.43;61.37;101655.28;5108486;27;20130;-69
2022/05/10 03:07:42;;;;;;;8.07;3.88;;;;;;;10.60;60.76;101660.81;5102670;28;20143;-69
2022/05/10 03:10:09;;;;;;;9.38;3.65;;;;;;;10.48;61.39;101653.38;5104385;28;20488;-69
2022/05/10 03:12:35;;;;;;;12.15;4.28;;;;;;;10.37;61.62;101649.44;5104834;27;20124;-69
2022/05/10 03:15:02;;;;;;;11.02;4.43;;;;;;;10.47;61.12;101650.78;5108397;27;20070;-69
2022/05/10 03:17:28;;;;;;;10.68;3.92;;;;;;;10.44;61.51;101653.53;5107859;27;20540;-69
2022/05/10 03:19:56;;;;;;;8.60;4.13;;;;;;;10.49;61.58;101657.72;5101076;28;20569;-69
2022/05/10 03:22:22;;;;;;;10.13;5.00;;;;;;;10.62;60.97;101651.09;5098342;28;20429;-69
2022/05/10 03:24:49;;;;;;;8.82;3.95;;;;;;;10.47;60.96;101651.66;5106187;27;20385;-69
2022/05/10 03:27:16;;;;;;;10.23;4.18;;;;;;;10.64;60.77;101656.28;5106009;28;20541;-69
2022/05/10 03:29:42;;;;;;;11.27;4.60;;;;;;;10.48;60.87;101645.50;5104794;27;20411;-69
2022/05/10 03:32:10;;;;;;;9.00;4.25;;;;;;;10.22;62.11;101648.22;5104083;27;20067;-69
2022/05/10 03:37:22;;;;;;;10.48;4.18;;;;;;;10.31;61.64;101647.88;5108282;28;20050;-69
2022/05/10 03:39:48;;;;;;;9.77;4.80;;;;;;;10.48;61.12;101645.50;5107261;28;20067;-69
2022/05/10 03:42:15;;;;;;;9.68;4.35;;;;;;;10.65;61.00;101644.88;5108182;27;20092;-69
2022/05/10 03:44:41;;;;;;;11.98;4.18;;;;;;;10.57;61.39;101637.28;5103067;27;20125;-69
2022/05/10 03:47:10;;;;;;;9.27;4.80;;;;;;;10.58;61.33;101646.00;5111837;28;20051;-69
2022/05/10 03:49:36;;;;;;;8.50;4.78;;;;;;;10.68;61.08;101640.34;5108349;28;20097;-69
2022/05/10 03:52:03;;;;;;;10.02;4.38;;;;;;;10.45;61.75;101637.75;5109254;27;20128;-69
2022/05/10 03:54:31;;;;;;;8.82;4.50;;;;;;;10.54;61.86;101634.78;5093542;28;20067;-69
2022/05/10 03:56:58;;;;;;;7.97;4.63;;;;;;;10.89;60.69;101629.97;5110433;27;20116;-69
2022/05/10 03:59:24;;;;;;;11.32;4.53;;;;;;;10.65;61.47;101637.84;5110998;28;20078;-69
2022/05/10 04:01:50;;;;;;;7.82;4.25;;;;;;;10.82;61.13;101637.22;5108612;28;20589;-69
2022/05/10 04:04:17;;;;;;;8.73;4.43;;;;;;;10.79;61.19;101632.06;5107170;28;20047;-69
2022/05/10 04:06:43;;;;;;;8.98;4.63;;;;;;;10.84;61.12;101638.00;5097451;28;20052;-69
2022/05/10 04:09:09;;;;;;;11.20;4.55;;;;;;;11.01;60.89;101637.38;5091039;28;20043;-69
2022/05/10 04:11:37;;;;;;;11.70;5.28;;;;;;;10.85;61.69;101636.25;5104364;27;20487;-69
2022/05/10 04:14:04;;;;;;;11.80;4.90;;;;;;;10.55;62.78;101628.63;5124145;27;20063;-69
2022/05/10 04:16:31;;;;;;;13.35;4.88;;;;;;;10.61;62.64;101622.28;5118541;27;20508;-69
2022/05/10 04:18:57;;;;;;;17.70;5.28;;;;;;;10.85;62.30;101618.75;5110756;27;20555;-69
2022/05/10 04:21:24;;;;;;;8.30;4.50;;;;;;;11.29;60.51;101622.22;5111570;27;20051;-68
2022/05/10 04:23:50;;;;;;;11.40;4.97;;;;;;;11.28;61.14;101623.13;5096289;27;20090;-69
2022/05/10 04:26:18;;;;;;;9.45;4.43;;;;;;;11.34;60.61;101619.41;5108617;28;20071;-69
2022/05/10 04:28:47;;;;;;;9.70;4.55;;;;;;;11.51;60.23;101611.69;5111026;28;20488;-69
2022/05/10 04:31:14;;;;;;;19.52;5.18;;;;;;;11.47;59.89;101608.34;5110922;27;20043;-69
2022/05/10 04:33:41;;;;;;;9.55;4.60;;;;;;;11.49;59.72;101606.47;5111104;27;20062;-69
2022/05/10 04:36:09;;;;;;;19.17;6.35;;;;;;;12.14;58.22;101613.34;5111601;27;20564;-70
2022/05/10 04:38:35;;;;;;;13.05;4.80;;;;;;;12.07;58.25;101601.41;5111258;27;20043;-69
2022/05/10 04:43:47;;;;;;;11.80;5.40;;;;;;;12.28;57.34;101608.34;5110647;27;20100;-68
2022/05/10 04:46:13;;;;;;;12.00;4.72;;;;;;;12.37;57.40;101600.03;5111220;27;20120;-69
2022/05/10 04:48:40;;;;;;;10.40;4.65;;;;;;;12.30;57.04;101598.63;5110462;28;20154;-69
2022/05/10 04:51:07;;;;;;;11.90;4.68;;;;;;;12.48;57.19;101595.16;5114291;28;20523;-68
2022/05/10 04:53:34;;;;;;;11.73;5.10;;;;;;;12.79;56.78;101604.22;5116520;28;20045;-68
2022/05/10 04:56:00;;;;;;;9.10;4.97;;;;;;;13.11;55.53;101599.19;5116336;27;20052;-68
2022/05/10 04:58:27;;;;;;;10.80;5.13;;;;;;;12.91;55.73;101603.66;5109139;27;20047;-69
2022/05/10 05:01:03;;;;;;;10.20;5.15;;;;;;;12.44;56.75;101600.63;5111692;27;20085;-69
2022/05/10 05:03:29;;;;;;;10.65;4.93;;;;;;;13.10;55.82;101599.25;5097874;28;20040;-68
2022/05/10 05:05:56;;;;;;;10.35;4.78;;;;;;;13.29;55.66;101601.84;5113427;27;20089;-68
2022/05/10 05:08:22;;;;;;;10.80;4.93;;;;;;;12.84;56.42;101603.09;5109244;28;20108;-68
2022/05/10 05:10:48;;;;;;;14.95;5.22;;;;;;;13.32;55.76;101606.94;5097830;27;20423;-68
2022/05/10 05:13:15;;;;;;;12.77;5.15;;;;;;;13.19;55.84;101600.59;5112383;27;20040;-68
2022/05/10 05:15:41;;;;;;;8.60;4.68;;;;;;;13.28;55.37;101606.25;5113408;27;20055;-68
2022/05/10 05:18:09;;;;;;;20.67;5.15;;;;;;;12.94;56.40;101606.13;5113496;27;20542;-68
2022/05/10 05:20:36;;;;;;;10.30;4.78;;;;;;;13.29;56.54;101601.84;5112663;27;20066;-68
2022/05/10 05:23:08;;;;;;;15.60;5.15;;;;;;;13.85;55.07;101596.34;5113085;27;20048;-68
2022/05/10 05:25:35;;;;;;;10.83;5.10;;;;;;;13.94;53.75;101599.34;5112890;28;20051;-69
2022/05/10 05:28:01;;;;;;;17.27;5.72;;;;;;;14.22;54.36;101601.41;5113097;28;20795;-69
2022/05/10 05:30:28;;;;;;;11.35;5.57;;;;;;;14.56;53.34;101601.31;5110616;28;20044;-69
2022/05/10 05:32:54;;;;;;;15.27;5.22;;;;;;;14.93;52.91;101609.81;5108922;27;20035;-69
2022/05/10 05:35:22;;;;;;;10.18;5.20;;;;;;;14.55;54.00;101591.72;5106095;27;20084;-69
2022/05/10 05:37:48;;;;;;;13.88;5.28;;;;;;;14.36;54.26;101596.28;5096196;28;20105;-69
2022/05/10 05:40:17;;;;;;;11.68;4.93;;;;;;;14.35;55.41;101599.84;5097394;27;20043;-69
2022/05/10 05:42:44;;;;;;;16.23;5.72;;;;;;;14.70;54.76;101595.28;5104585;27;20047;-69
2022/05/10 05:45:13;;;;;;;12.27;5.25;;;;;;;14.82;54.61;101602.50;5112518;27;20051;-69
2022/05/10 05:47:40;;;;;;;15.23;5.25;;;;;;;15.48;53.37;101597.00;5110663;28;20039;-69
2022/05/10 05:50:08;;;;;;;10.27;5.10;;;;;;;15.75;52.56;101602.44;5114407;27;20043;-69
2022/05/10 05:52:36;;;;;;;14.35;5.88;;;;;;;16.25;53.97;101600.25;5112034;28;20508;-69
2022/05/10 05:55:04;;;;;;;13.68;5.32;;;;;;;16.11;52.06;101592.31;5111901;28;20103;-69
2022/05/10 05:57:31;;;;;;;11.57;5.75;;;;;;;15.85;52.35;101591.22;5112086;28;20496;-69
2022/05/10 05:59:58;;;;;;;11.50;5.13;;;;;;;16.20;52.12;101585.59;5111301;28;20048;-69
2022/05/10 06:02:26;;;;;;;14.32;5.50;;;;;;;15.51;52.93;101592.41;5111762;27;20040;-69
2022/05/10 06:04:52;;;;;;;12.52;5.18;;;;;;;15.50;54.33;101590.69;5110140;27;20488;-69
2022/05/10 06:07:19;;;;;;;12.40;4.80;;;;;;;15.89;53.84;101582.16;5131244;27;20095;-69
2022/05/10 06:09:47;;;;;;;13.52;5.25;;;;;;;16.04;53.35;101590.97;5122412;27;20124;-69
2022/05/10 06:12:17;;;;;;;8.05;4.60;;;;;;;15.91;52.68;101584.72;5110547;27;20077;-69
2022/05/10 06:14:44;;;;;;;15.60;5.68;;;;;;;16.28;51.47;101585.97;5111175;27;20066;-69
2022/05/10 06:17:12;;;;;;;8.70;4.93;;;;;;;16.23;52.90;101588.91;5111494;27;20084;-69
2022/05/10 06:19:40;;;;;;;15.57;5.72;;;;;;;16.92;51.35;101590.75;5110367;28;20052;-69
2022/05/10 06:22:09;;;;;;;10.23;5.32;;;;;;;17.47;49.95;101578.22;5101563;28;20093;-69
2022/05/10 06:24:35;;;;;;;20.85;4.93;;;;;;;18.34;48.40;101582.81;5101210;27;20122;-69
2022/05/10 06:27:05;;;;;;;11.38;5.20;;;;;;;18.74;46.60;101583.50;5109960;28;20052;-69
2022/05/10 06:29:32;;;;;;;14.85;5.15;;;;;;;18.02;47.64;101585.06;5109634;28;20207;-69
2022/05/10 06:31:58;;;;;;;9.85;5.22;;;;;;;17.73;51.47;101584.44;5109593;28;20056;-69
2022/05/10 06:34:24;;;;;;;10.07;4.95;;;;;;;17.94;49.10;101572.34;5108881;27;20039;-69
2022/05/10 06:36:51;;;;;;;11.20;5.00;;;;;;;17.88;50.23;101574.56;5109582;27;20093;-69
2022/05/10 06:39:17;;;;;;;12.52;5.35;;;;;;;17.95;49.07;101573.19;5098355;27;20525;-69
2022/05/10 06:41:44;;;;;;;17.42;5.70;;;;;;;17.92;48.80;101570.75;5107278;27;20051;-69
2022/05/10 06:44:11;;;;;;;8.82;4.75;;;;;;;17.50;53.08;101569.19;5109763;27;20044;-69
2022/05/10 06:46:38;;;;;;;10.48;5.38;;;;;;;17.71;49.94;101558.94;5109424;28;20039;-69
2022/05/10 06:49:05;;;;;;;11.95;4.82;;;;;;;18.74;47.60;101567.56;5108355;28;20397;-69
2022/05/10 06:51:32;;;;;;;11.15;5.70;;;;;;;19.67;47.47;101554.31;5108776;27;20040;-69
2022/05/10 06:54:00;;;;;;;9.32;5.15;;;;;;;19.79;45.19;101553.38;5108216;27;20632;-69
2022/05/10 06:56:26;;;;;;;7.60;4.35;;;;;;;20.25;45.11;101549.78;5103186;27;20092;-69
2022/05/10 06:58:52;;;;;;;11.70;4.80;;;;;;;20.83;42.61;101553.97;5107690;28;20071;-69
2022/05/10 07:01:20;;;;;;;13.23;5.30;;;;;;;19.55;46.13;101549.94;5108735;28;20062;-69
2022/05/10 07:03:48;;;;;;;10.25;4.97;;;;;;;19.43;46.13;101538.44;5108730;27;20429;-69
2022/05/10 07:06:17;;;;;;;13.23;4.72;;;;;;;20.01;45.98;101546.38;5107807;27;20074;-69
2022/05/10 07:08:44;;;;;;;9.40;4.75;;;;;;;19.43;45.68;101530.47;5108620;27;20054;-68
2022/05/10 07:11:11;;;;;;;10.10;4.85;;;;;;;19.88;45.78;101536.69;5108425;27;20116;-68
2022/05/10 07:13:37;;;;;;;9.73;4.50;;;;;;;20.47;45.45;101532.97;5107003;27;20122;-68
2022/05/10 07:16:05;;;;;;;9.90;4.28;;;;;;;21.12;43.84;101523.09;5111225;27;20089;-68
2022/05/10 07:18:32;;;;;;;11.55;4.07;;;;;;;20.45;44.21;101525.09;5112417;27;20548;-68
2022/05/10 07:20:59;;;;;;;10.15;4.20;;;;;;;21.40;43.48;101518.94;5111944;27;20051;-68
2022/05/10 07:23:29;;;;;;;8.73;4.10;;;;;;;21.91;44.49;101520.84;5111767;27;20088;-69
2022/05/10 07:25:55;;;;;;;8.18;4.20;;;;;;;21.68;42.50;101517.47;5112752;27;20094;-69
2022/05/10 07:28:21;;;;;;;9.85;4.22;;;;;;;21.34;42.23;101519.50;5112304;28;20415;-70
2022/05/10 07:30:48;;;;;;;7.65;3.90;;;;;;;20.73;44.41;101519.19;5097887;28;20488;-70
2022/05/10 07:33:18;;;;;;;10.05;4.15;;;;;;;20.23;44.54;101523.28;5103708;27;20075;-70
2022/05/10 07:38:29;;;;;;;9.38;4.20;;;;;;;20.85;43.92;101512.03;5112494;27;20101;-70
2022/05/10 07:40:56;;;;;;;8.07;3.78;;;;;;;20.78;43.06;101513.50;5111054;28;20071;-70
2022/05/10 07:43:22;;;;;;;9.80;3.60;;;;;;;21.59;42.06;101502.22;5119222;27;20064;-70
2022/05/10 07:45:51;;;;;;;8.85;3.35;;;;;;;22.71;41.30;101502.97;5111489;27;20491;-70
2022/05/10 07:48:18;;;;;;;10.63;3.67;;;;;;;23.02;40.09;101501.03;5111207;27;20113;-70
2022/05/10 07:50:45;;;;;;;9.70;3.63;;;;;;;23.06;38.32;101505.94;5111639;27;20116;-70
2022/05/10 07:53:13;;;;;;;8.98;4.18;;;;;;;23.60;37.83;101501.84;5112740;27;20047;-70
2022/05/10 07:55:40;;;;;;;8.35;3.72;;;;;;;23.86;38.26;101494.00;5111979;28;20067;-70
2022/05/10 07:58:08;;;;;;;7.85;3.40;;;;;;;23.78;38.38;101505.44;5112020;27;20407;-70
2022/05/10 08:00:36;;;;;;;8.25;3.60;;;;;;;23.17;39.10;101497.78;5110514;27;20089;-70
2022/05/10 08:03:09;;;;;;;8.68;3.67;;;;;;;23.46;39.48;101488.91;5111196;27;20085;-70
2022/05/10 08:05:36;;;;;;;8.55;4.05;;;;;;;23.33;40.74;101496.34;5109491;27;20039;-70
2022/05/10 08:08:04;;;;;;;10.30;3.58;;;;;;;24.51;37.92;101492.97;5111840;28;20047;-70
2022/05/10 08:10:30;;;;;;;11.75;4.13;;;;;;;24.38;38.64;101490.69;5114480;27;20070;-70
2022/05/10 08:12:56;;;;;;;7.18;3.55;;;;;;;24.89;37.57;101481.16;5110961;27;20069;-70
2022/05/10 08:15:23;;;;;;;8.60;4.00;;;;;;;24.13;40.47;101481.47;5111220;27;20035;-70
2022/05/10 08:17:49;;;;;;;7.93;3.67;;;;;;;24.66;36.60;101478.91;5124409;27;20062;-70
2022/05/10 08:20:16;;;;;;;8.43;3.80;;;;;;;24.67;39.00;101480.59;5121112;27;20074;-70
2022/05/10 08:22:42;;;;;;;9.77;4.30;;;;;;;24.90;38.69;101483.72;5112252;28;20051;-70
2022/05/10 08:25:12;;;;;;;7.30;3.90;;;;;;;25.87;35.83;101472.84;5111518;27;20044;-70
2022/05/10 08:27:38;;;;;;;5.88;3.25;;;;;;;25.20;37.06;101477.91;5110514;28;20108;-70
2022/05/10 08:30:06;;;;;;;8.05;3.95;;;;;;;24.92;37.11;101476.34;5110719;27;20124;-70
2022/05/10 08:32:33;;;;;;;9.65;4.03;;;;;;;25.38;36.67;101471.69;5113853;27;20047;-70
2022/05/10 08:34:59;;;;;;;10.90;3.35;;;;;;;25.52;36.02;101469.28;5110961;27;20067;-70
2022/05/10 08:37:26;;;;;;;6.45;3.30;;;;;;;25.37;36.75;101469.97;5110915;27;20040;-70
2022/05/10 08:39:52;;;;;;;6.75;3.63;;;;;;;25.11;37.05;101465.44;5109513;27;20048;-69
2022/05/10 08:42:23;;;;;;;9.57;3.90;;;;;;;24.67;37.60;101471.72;5111150;27;20047;-69
2022/05/10 08:45:00;;;;;;;10.07;3.88;;;;;;;25.88;39.23;101469.13;5110794;27;20096;-69
2022/05/10 08:47:28;;;;;;;6.43;3.45;;;;;;;25.25;36.82;101469.38;5126832;27;20518;-69
2022/05/10 08:49:59;;;;;;;9.23;4.00;;;;;;;25.57;37.62;101466.94;5119030;27;20097;-69
2022/05/10 08:52:30;;;;;;;6.38;3.90;;;;;;;25.77;37.23;101456.84;5131536;27;20486;-69
2022/05/10 08:54:57;;;;;;;9.88;3.60;;;;;;;26.18;37.66;101465.94;5116832;27;20430;-69
2022/05/10 08:57:33;;;;;;;7.22;3.80;;;;;;;26.24;36.28;101456.41;5112523;27;20100;-69
2022/05/10 09:00:05;;;;;;;10.85;3.80;;;;;;;26.77;36.70;101450.59;5105704;27;20138;-69
2022/05/10 09:02:40;;;;;;;7.10;3.70;;;;;;;27.16;34.79;101450.81;5117557;27;20048;-69
2022/05/10 09:05:11;;;;;;;8.48;3.47;;;;;;;26.96;35.63;101431.47;5110049;27;20096;-69
2022/05/10 09:07:41;;;;;;;7.20;3.53;;;;;;;27.29;34.53;101434.97;5110130;27;20504;-69
2022/05/10 09:10:13;;;;;;;8.52;3.78;;;;;;;26.58;35.17;101441.84;5109459;27;20069;-69
2022/05/10 09:12:46;;;;;;;8.05;3.42;;;;;;;27.17;35.12;101444.41;5109628;27;20061;-69
2022/05/10 09:15:14;;;;;;;5.43;3.60;;;;;;;27.20;34.37;101438.69;5110133;27;20036;-69
2022/05/10 09:17:41;;;;;;;11.60;4.15;;;;;;;27.16;35.38;101426.59;5112153;27;20051;-69
2022/05/10 09:20:10;;;;;;;11.43;3.88;;;;;;;25.63;37.46;101438.63;5109602;27;20135;-69
2022/05/10 09:23:07;;;;;;;9.02;3.60;;;;;;;25.85;37.29;101437.22;5110574;27;20113;-69
2022/05/10 09:25:36;;;;;;;8.25;4.00;;;;;;;26.48;37.08;101437.63;5110084;27;20092;-69
2022/05/10 09:28:13;;;;;;;14.75;4.20;;;;;;;27.33;36.24;101414.78;5107875;27;20059;-69
2022/05/10 09:30:40;;;;;;;9.15;3.80;;;;;;;28.03;33.89;101421.97;5101530;28;20039;-69
2022/05/10 09:36:03;;;;;;;8.63;3.90;;;;;;;27.40;35.76;101415.75;5103503;27;20058;-69
2022/05/10 09:38:29;;;;;;;11.13;4.13;;;;;;;27.96;34.63;101412.91;5110009;28;20039;-69
2022/05/10 09:40:56;;;;;;;4.97;3.72;;;;;;;28.33;33.33;101414.91;5109626;27;20514;-69
2022/05/10 09:43:27;;;;;;;14.07;3.83;;;;;;;28.79;32.35;101413.06;5109609;27;20492;-68
2022/05/10 09:46:10;;;;;;;6.97;3.65;;;;;;;28.35;32.64;101402.09;5109351;27;20668;-69
2022/05/10 09:48:38;;;;;;;7.47;3.60;;;;;;;27.49;34.96;101412.09;5109765;27;20044;-69
2022/05/10 09:51:22;;;;;;;10.00;3.63;;;;;;;27.32;35.07;101405.84;5109418;28;20104;-69
2022/05/10 09:53:49;;;;;;;17.23;3.83;;;;;;;26.77;33.89;101397.63;5109466;27;20089;-69
2022/05/10 09:56:29;;;;;;;7.30;3.65;;;;;;;27.41;34.49;101398.59;5109658;28;20491;-69
2022/05/10 09:58:59;;;;;;;5.05;3.50;;;;;;;27.47;34.32;101401.47;5125821;27;20051;-69
2022/05/10 10:01:43;;;;;;;6.47;3.72;;;;;;;27.54;35.60;101396.22;5130028;27;20043;-72
2022/05/10 10:04:20;;;;;;;7.78;4.15;;;;;;;27.84;34.06;101390.03;5103326;28;20552;-72
2022/05/10 10:07:04;;;;;;;10.55;4.68;;;;;;;28.15;34.13;101391.94;5108636;28;20477;-72
2022/05/10 10:09:32;;;;;;;6.03;3.70;;;;;;;27.71;34.10;101386.25;5088545;28;20070;-72
2022/05/10 10:11:59;;;;;;;9.77;3.97;;;;;;;27.22;34.86;101388.19;5102028;27;20055;-72
2022/05/10 10:14:40;;;;;;;11.68;4.20;;;;;;;27.15;36.42;101390.75;5108876;27;20054;-70
2022/05/10 10:17:18;;;;;;;10.93;3.28;;;;;;;27.69;34.57;101374.78;5109686;27;20048;-70
2022/05/10 10:19:49;;;;;;;6.22;3.53;;;;;;;27.86;32.69;101382.59;5108733;28;20118;-70
2022/05/10 10:22:21;;;;;;;8.23;3.80;;;;;;;27.96;32.70;101364.38;5109034;28;20140;-72
2022/05/10 10:24:52;;;;;;;10.15;3.88;;;;;;;27.29;32.64;101379.25;5109314;28;20308;-70
2022/05/10 10:27:23;;;;;;;4.97;3.70;;;;;;;27.64;33.87;101372.63;5108471;28;20101;-70
2022/05/10 10:29:55;;;;;;;8.33;3.63;;;;;;;28.47;31.72;101353.94;5108590;28;20097;-70
2022/05/10 10:32:28;;;;;;;8.05;3.75;;;;;;;27.97;32.66;101357.13;5109652;28;20047;-70
2022/05/10 10:35:02;;;;;;;6.22;3.47;;;;;;;28.14;34.48;101364.13;5101625;27;20520;-70
2022/05/10 10:37:33;;;;;;;5.25;3.60;;;;;;;27.94;31.26;101354.78;5108172;28;20138;-70
2022/05/10 10:40:11;;;;;;;6.45;2.88;;;;;;;28.43;29.70;101349.94;5104618;28;20462;-70
2022/05/10 10:42:48;;;;;;;5.22;2.90;;;;;;;29.04;27.97;101351.63;5116590;27;20039;-70
2022/05/10 10:45:18;;;;;;;7.47;3.30;;;;;;;29.35;29.49;101341.50;5108429;27;20040;-70
2022/05/10 10:47:50;;;;;;;6.35;3.20;;;;;;;29.78;28.42;101333.53;5108550;27;20054;-70
2022/05/10 10:50:22;;;;;;;7.40;3.03;;;;;;;30.61;29.77;101322.16;5109787;27;20042;-70
2022/05/10 10:52:48;;;;;;;5.93;2.80;;;;;;;30.18;29.51;101337.53;5113449;27;20051;-70
2022/05/10 10:55:18;;;;;;;12.52;3.80;;;;;;;29.90;26.10;101322.06;5130063;27;20499;-71
2022/05/10 10:57:56;;;;;;;4.78;2.70;;;;;;;29.81;29.32;101325.88;5113342;28;20047;-70
2022/05/10 11:00:29;;;;;;;5.72;2.85;;;;;;;29.38;26.00;101324.06;5112208;27;20043;-72
2022/05/10 11:03:00;;;;;;;4.90;3.22;;;;;;;29.22;29.08;101308.03;5111487;27;20036;-73
2022/05/10 11:06:18;;;;;;;5.55;2.72;;;;;;;29.25;26.47;101307.66;5112368;27;20048;-74
2022/05/10 11:08:57;;;;;;;5.38;3.13;;;;;;;28.54;26.74;101303.63;5049099;28;20464;-73
2022/05/10 11:11:34;;;;;;;6.20;3.25;;;;;;;29.06;27.30;101308.22;5048657;28;20454;-73
2022/05/10 11:14:13;;;;;;;8.25;3.45;;;;;;;28.93;28.26;101304.31;5083525;27;20075;-72
2022/05/10 11:16:52;;;;;;;8.32;3.35;;;;;;;29.89;27.66;101293.38;5112089;28;20046;-72
2022/05/10 11:19:47;;;;;;;7.05;3.13;;;;;;;28.95;26.68;101296.84;5112115;27;20903;-72
2022/05/10 11:22:30;;;;;;;5.28;2.85;;;;;;;29.71;27.99;101276.66;5118409;27;20111;-72
2022/05/10 11:25:06;;;;;;;11.27;3.17;;;;;;;29.61;26.25;101273.44;5133230;27;20055;-72
2022/05/10 11:27:48;;;;;;;5.15;2.95;;;;;;;29.50;26.84;101260.44;5112396;27;20674;-73
2022/05/10 11:30:16;;;;;;;;;;;;;;;29.10;27.95;101260.91;5111784;28;20047;-72
2022/05/10 11:33:02;;;;;;;8.65;3.20;;;;;;;28.76;29.00;101275.78;5112957;27;20436;-73
2022/05/10 11:36:03;;;;;;;7.65;3.63;;;;;;;27.93;29.59;101265.00;5120789;27;20040;-71
2022/05/10 11:38:50;;;;;;;5.72;3.00;;;;;;;28.26;29.76;101260.22;5114095;28;20690;-72
2022/05/10 11:41:26;;;;;;;6.28;3.38;;;;;;;28.05;29.50;101266.25;5111643;27;20070;-73
2022/05/10 11:44:19;;;;;;;4.50;2.90;;;;;;;27.27;30.68;101256.59;5116887;27;20069;-73
2022/05/10 11:47:25;;;;;;;7.43;3.28;;;;;;;27.40;29.97;101252.31;5111937;27;20066;-72
2022/05/10 11:50:18;;;;;;;5.57;3.65;;;;;;;26.74;30.27;101246.47;5054023;28;20786;-72